Time;durP1;ratioP1;P1;durP2;ratioP2;P2;SDS_P1;SDS_P2;PMS_P1;PMS_P2;Temp;Humidity;BMP_temperature;BMP_pressure;BME280_temperature;BME280_humidity;BME280_pressure;Samples;Min_cycle;Max_cycle;Signal;HPM_P1;HPM_P2
2021/01/09 00:12:01;;;;;;;;;;;;;;;-2.28;97.27;100914.38;5784214;24;19944;-76
2021/01/09 00:18:12;;;;;;;;;;;;;;;-2.27;97.12;100900.56;5762944;24;19933;-76
2021/01/09 00:21:00;;;;;;;;;;;;;;;-2.31;97.26;100898.47;5809112;24;19908;-76
2021/01/09 00:24:00;;;;;;;;;;;;;;;;;;;;;
2021/01/09 00:30:45;;;;;;;;;;;;;;;;;;;;;
2021/01/09 00:33:52;;;;;;;;;;;;;;;-2.37;96.86;100900.06;5938051;24;19932;-76
2021/01/09 00:40:34;;;;;;;;;;;;;;;-2.42;96.90;100896.25;6066606;23;19941;-76
2021/01/09 00:43:21;;;;;;;;;;;;;;;-2.43;97.12;100908.19;6138826;23;19904;-76
2021/01/09 00:49:11;;;;;;;;;;;;;;;-2.43;96.81;100910.91;6186695;23;19983;-76
2021/01/09 01:02:40;;;;;;;;;;;;;;;-2.47;96.93;100916.75;5982779;23;19914;-76
2021/01/09 01:05:47;;;;;;;;;;;;;;;-2.48;97.01;100927.81;5952942;24;19981;-76
2021/01/09 01:08:53;;;;;;;;;;;;;;;;;;;;;
2021/01/09 01:12:05;;;;;;;;;;;;;;;-2.53;96.78;100933.03;5969169;23;19911;-76
2021/01/09 01:44:39;;;;;;;;;;;;;;;-2.69;97.36;100950.47;5954429;23;19915;-76
2021/01/09 01:55:06;;;;;;;;;;;;;;;;;;;;;
2021/01/09 02:12:24;;;;;;;;;;;;;;;-2.77;97.59;100947.88;5893689;24;19916;-76
2021/01/09 02:15:49;;;;;;;;;;;;;;;;;;;;;
2021/01/09 02:18:46;;;;;;;;;;;;;;;-2.76;97.29;100965.88;5892566;24;19912;-76
2021/01/09 02:21:33;;;;;;;;;;;;;;;-2.80;97.49;100970.03;5926547;24;20332;-76
2021/01/09 02:24:35;;;;;;;;;;;;;;;-2.82;97.53;100972.09;5956156;24;19907;-76
2021/01/09 02:27:39;;;;;;;;;;;;;;;-2.92;97.88;100981.44;5956789;24;20239;-76
2021/01/09 02:30:55;;;;;;;;;;;;;;;-2.93;97.72;100987.03;5926737;24;19911;-76
2021/01/09 02:33:58;;;;;;;;;;;;;;;-2.95;97.53;100984.53;6013661;23;19913;-76
2021/01/09 02:37:32;;;;;;;;;;;;;;;;;;;;;
2021/01/09 02:40:53;;;;;;;;;;;;;;;;;;;;;
2021/01/09 02:43:45;;;;;;;;;;;;;;;-2.95;97.88;100987.25;6083558;23;20139;-76
2021/01/09 02:53:37;;;;;;;;;;;;;;;-2.96;97.86;100979.28;6223256;23;19904;-76
2021/01/09 02:57:02;;;;;;;;;;;;;;;-3.01;97.92;100982.59;6202068;23;19915;-76
2021/01/09 03:00:31;;;;;;;;;;;;;;;-2.98;97.74;100982.22;6225608;23;20363;-76
2021/01/09 03:03:12;;;;;;;;;;;;;;;-2.98;97.63;100982.22;6248522;22;19904;-76
2021/01/09 03:06:18;;;;;;;;;;;;;;;-3.00;97.53;100983.44;6224492;23;20291;-76
2021/01/09 03:09:45;;;;;;;;;;;;;;;-3.03;97.33;100987.38;6221188;23;19911;-76
2021/01/09 03:15:34;;;;;;;;;;;;;;;-3.10;97.38;100981.03;6224524;23;20226;-76
2021/01/09 03:18:34;;;;;;;;;;;;;;;;;;;;;
2021/01/09 03:21:40;;;;;;;;;;;;;;;-3.25;97.40;100974.81;6195445;22;19907;-77
2021/01/09 03:24:29;;;;;;;;;;;;;;;-3.23;97.33;100968.16;6226556;23;19927;-76
2021/01/09 03:27:29;;;;;;;;;;;;;;;-3.22;97.61;100955.41;6231744;22;19915;-76
2021/01/09 03:30:12;;;;;;;;;;;;;;;-3.22;97.84;100945.38;6254671;22;19911;-76
2021/01/09 03:32:53;;;;;;;;;;;;;;;-3.20;97.78;100947.91;6225445;22;19904;-76
2021/01/09 03:36:10;;;;;;;;;;;;;;;-3.18;97.77;100941.22;6234177;22;19978;-76
2021/01/09 03:39:13;;;;;;;;;;;;;;;;;;;;;
2021/01/09 03:42:02;;;;;;;;;;;;;;;-3.15;97.57;100950.88;6233499;22;19903;-76
2021/01/09 03:44:41;;;;;;;;;;;;;;;-3.19;97.55;100961.28;6225001;22;19903;-76
2021/01/09 03:47:36;;;;;;;;;;;;;;;-3.19;97.39;100960.44;6207970;22;19918;-76
2021/01/09 03:50:21;;;;;;;;;;;;;;;-3.23;97.30;100968.16;6206363;22;20228;-75
2021/01/09 03:53:08;;;;;;;;;;;;;;;-3.25;97.19;100953.06;6230550;22;19938;-75
2021/01/09 03:56:03;;;;;;;;;;;;;;;-3.28;97.35;100967.03;6229913;22;19907;-75
2021/01/09 03:58:42;;;;;;;;;;;;;;;-3.37;97.73;100964.44;6229389;22;20279;-76
2021/01/09 04:01:46;;;;;;;;;;;;;;;;;;;;;
2021/01/09 04:05:08;;;;;;;;;;;;;;;;;;;;;
2021/01/09 04:08:25;;;;;;;;;;;;;;;-3.37;97.79;100959.00;6192026;22;20274;-76
2021/01/09 04:15:16;;;;;;;;;;;;;;;-3.31;98.10;100953.84;6127734;23;19905;-76
2021/01/09 04:24:23;;;;;;;;;;;;;;;-3.32;97.43;100958.41;6271145;22;19907;-76
2021/01/09 04:27:41;;;;;;;;;;;;;;;-3.41;97.39;100957.69;6196608;23;19946;-76
2021/01/09 04:30:36;;;;;;;;;;;;;;;-3.39;97.30;100960.22;6196430;23;19951;-76
2021/01/09 04:34:00;;;;;;;;;;;;;;;-3.40;97.06;100953.97;6229116;23;19930;-76
2021/01/09 04:37:21;;;;;;;;;;;;;;;-3.40;97.26;100955.81;6226248;23;19953;-76
2021/01/09 04:40:05;;;;;;;;;;;;;;;;;;;;;
2021/01/09 04:43:01;;;;;;;;;;;;;;;-3.43;97.13;100948.88;6200973;23;19908;-75
2021/01/09 04:49:15;;;;;;;;;;;;;;;;;;;;;
2021/01/09 04:55:33;;;;;;;;;;;;;;;-3.50;96.96;100952.59;6203427;23;20275;-76
2021/01/09 04:58:17;;;;;;;;;;;;;;;;;;;;;
2021/01/09 05:04:34;;;;;;;;;;;;;;;-3.68;96.95;100963.84;6137652;23;19908;-75
2021/01/09 05:07:41;;;;;;;;;;;;;;;;;;;;;
2021/01/09 05:10:44;;;;;;;;;;;;;;;-3.68;96.88;100961.13;6110362;23;19904;-76
2021/01/09 05:17:45;;;;;;;;;;;;;;;;;;;;;
2021/01/09 05:21:10;;;;;;;;;;;;;;;;;;;;;
2021/01/09 05:28:15;;;;;;;;;;;;;;;-3.97;96.91;100973.69;6139167;23;19913;-76
2021/01/09 05:35:27;;;;;;;;;;;;;;;;;;;;;
2021/01/09 05:38:31;;;;;;;;;;;;;;;-4.03;97.18;100993.44;6093127;23;19909;-76
2021/01/09 05:42:09;;;;;;;;;;;;;;;;;;;;;
2021/01/09 05:45:40;;;;;;;;;;;;;;;;;;;;;
2021/01/09 05:49:22;;;;;;;;;;;;;;;;;;;;;
2021/01/09 06:09:58;;;;;;;;;;;;;;;-3.92;96.24;101003.00;6127111;23;19932;-76
2021/01/09 06:19:19;;;;;;;;;;;;;;;-4.07;95.88;101017.41;6133262;23;19905;-76
2021/01/09 06:21:44;;;;;;;;;;;;;;;-4.03;96.87;101017.88;6221654;23;19903;-76
2021/01/09 06:28:06;;;;;;;;;;;;;;;-4.13;96.07;101020.00;6251166;22;19942;-76
2021/01/09 06:31:16;;;;;;;;;;;;;;;-4.19;95.59;101024.28;6197358;23;19911;-75
2021/01/09 06:34:38;;;;;;;;;;;;;;;-4.22;95.25;101012.97;6193184;23;19982;-76
2021/01/09 06:37:57;;;;;;;;;;;;;;;;;;;;;
2021/01/09 06:45:36;;;;;;;;;;;;;;;-4.35;94.60;101030.72;6166455;22;20261;-76
2021/01/09 06:52:52;;;;;;;;;;;;;;;;;;;;;
2021/01/09 06:55:55;;;;;;;;;;;;;;;-4.63;94.50;101043.16;5980803;23;19910;-76
2021/01/09 06:58:41;;;;;;;;;;;;;;;-4.66;94.63;101043.53;6098674;22;19903;-75
2021/01/09 07:01:28;;;;;;;;;;;;;;;-4.73;94.85;101044.25;6224101;22;19990;-75
2021/01/09 07:04:05;;;;;;;;;;;;;;;-4.74;94.84;101053.38;6226204;22;19903;-76
2021/01/09 07:06:58;;;;;;;;;;;;;;;-4.80;94.77;101056.81;6203251;22;20320;-76
2021/01/09 07:09:59;;;;;;;;;;;;;;;-4.83;94.76;101059.06;6253761;22;19911;-76
2021/01/09 07:12:48;;;;;;;;;;;;;;;-4.85;94.80;101061.94;6231699;22;20308;-76
2021/01/09 07:15:45;;;;;;;;;;;;;;;-4.91;94.95;101073.50;6241480;22;19903;-76
2021/01/09 07:18:50;;;;;;;;;;;;;;;-4.93;94.78;101072.84;6213483;22;19910;-76
2021/01/09 07:25:13;;;;;;;;;;;;;;;-5.01;94.71;101083.75;6101416;23;19905;-76
2021/01/09 07:31:41;;;;;;;;;;;;;;;-5.00;94.38;101096.25;6001697;23;19914;-75
2021/01/09 07:34:16;;;;;;;;;;;;;;;-5.02;94.25;101087.44;5967370;23;20051;-75
2021/01/09 07:36:46;;;;;;;;;;;;;;;-5.07;94.38;101095.25;5995088;23;19906;-75
2021/01/09 07:39:13;;;;;;;;;;;;;;;-5.06;94.21;101094.25;5994960;23;19967;-75
2021/01/09 07:41:41;;;;;;;;;;;;;;;-5.11;94.42;101099.34;6018002;23;20236;-76
2021/01/09 07:44:50;;;;;;;;;;;;;;;-5.20;94.47;101102.09;6019031;23;19944;-76
2021/01/09 07:51:25;;;;;;;;;;;;;;;-5.23;94.42;101107.03;6040841;23;19957;-76
2021/01/09 07:54:31;;;;;;;;;;;;;;;-5.27;94.54;101103.81;6011752;23;19912;-76
2021/01/09 08:00:47;;;;;;;;;;;;;;;-5.32;94.65;101119.78;6068820;23;19960;-76
2021/01/09 08:03:51;;;;;;;;;;;;;;;-5.35;94.52;101127.38;6145264;23;19956;-78
2021/01/09 08:06:45;;;;;;;;;;;;;;;-5.42;94.92;101119.97;6110154;23;19939;-76
2021/01/09 08:09:25;;;;;;;;;;;;;;;-5.39;94.82;101126.88;6108267;23;19908;-76
2021/01/09 08:12:36;;;;;;;;;;;;;;;;;;;;;
2021/01/09 08:15:36;;;;;;;;;;;;;;;-5.41;94.94;101137.03;6136364;23;19908;-76
2021/01/09 08:18:23;;;;;;;;;;;;;;;-5.41;94.67;101139.75;6119988;23;19908;-76
2021/01/09 08:28:19;;;;;;;;;;;;;;;-5.33;95.15;101155.97;6235916;22;19907;-76
2021/01/09 08:31:18;;;;;;;;;;;;;;;-5.33;95.14;101160.53;6213994;22;19982;-76
2021/01/09 08:34:14;;;;;;;;;;;;;;;-5.29;95.35;101164.59;6208845;22;19907;-76
2021/01/09 08:37:19;;;;;;;;;;;;;;;-5.27;95.81;101166.09;6226758;22;20209;-76
2021/01/09 08:39:44;;;;;;;;;;;;;;;-5.22;96.12;101168.28;6159281;23;19904;-75
2021/01/09 08:42:13;;;;;;;;;;;;;;;-5.16;96.67;101170.28;6236800;22;20316;-75
2021/01/09 08:44:44;;;;;;;;;;;;;;;-5.09;96.54;101178.59;6281459;22;19982;-77
2021/01/09 08:47:12;;;;;;;;;;;;;;;-5.03;96.70;101183.28;6280686;22;19913;-75
2021/01/09 08:49:44;;;;;;;;;;;;;;;-4.94;96.56;101182.22;6228119;22;20300;-75
2021/01/09 08:52:21;;;;;;;;;;;;;;;-4.86;96.92;101174.06;6253987;22;19907;-75
2021/01/09 08:54:47;;;;;;;;;;;;;;;-4.73;96.84;101185.19;6229910;22;19907;-75
2021/01/09 08:57:13;;;;;;;;;;;;;;;-4.63;96.94;101187.66;6227661;22;19914;-75
2021/01/09 08:59:38;;;;;;;;;;;;;;;-4.53;96.94;101185.56;6228206;22;19903;-75
2021/01/09 09:02:04;;;;;;;;;;;;;;;-4.44;96.96;101189.06;6203057;22;19903;-75
2021/01/09 09:04:30;;;;;;;;;;;;;;;-4.33;97.10;101190.53;6253918;22;20364;-75
2021/01/09 09:06:58;;;;;;;;;;;;;;;-4.25;96.85;101192.34;6228114;22;19930;-75
2021/01/09 09:09:24;;;;;;;;;;;;;;;-4.13;96.77;101194.44;6253635;22;19991;-75
2021/01/09 09:12:39;;;;;;;;;;;;;;;-3.99;97.00;101198.25;6254297;22;19903;-75
2021/01/09 09:16:49;;;;;;;;;;;;;;;-3.85;96.85;101197.44;6229766;22;20008;-76
2021/01/09 09:26:32;;;;;;;;;;;;;;;-3.38;97.35;101214.50;6091092;23;19931;-76
2021/01/09 09:28:59;;;;;;;;;;;;;;;-3.26;97.54;101218.47;6050331;23;20039;-75
2021/01/09 09:31:25;;;;;;;;;;;;;;;-3.17;97.75;101205.63;6073151;23;19920;-75
2021/01/09 09:33:57;;;;;;;;;;;;;;;-3.09;97.72;101213.69;6145517;23;19908;-75
2021/01/09 09:36:41;;;;;;;;;;;;;;;-3.00;97.76;101209.84;6136585;23;19911;-76
2021/01/09 09:39:22;;;;;;;;;;;;;;;-2.89;97.42;101208.53;6114925;23;19911;-75
2021/01/09 09:41:59;;;;;;;;;;;;;;;-2.79;97.51;101216.38;6112675;23;19904;-76
2021/01/09 09:44:46;;;;;;;;;;;;;;;-2.67;97.79;101219.47;6138046;23;19958;-75
2021/01/09 09:50:41;;;;;;;;;;;;;;;-2.40;97.89;101215.19;6127262;23;20228;-76
2021/01/09 09:53:10;;;;;;;;;;;;;;;-2.31;97.68;101220.34;6131819;23;19932;-75
2021/01/09 09:55:36;;;;;;;;;;;;;;;-2.19;98.01;101217.13;6082101;23;19961;-75
2021/01/09 09:58:05;;;;;;;;;;;;;;;-2.09;97.87;101218.50;6083224;23;20231;-75
2021/01/09 10:00:30;;;;;;;;;;;;;;;-1.99;97.70;101220.03;6132274;23;19904;-75
2021/01/09 10:06:26;;;;;;;;;;;;;;;-1.76;97.54;101215.22;6158970;23;19904;-76
2021/01/09 10:08:59;;;;;;;;;;;;;;;-1.64;97.63;101221.00;6169688;23;19907;-76
2021/01/09 10:11:35;;;;;;;;;;;;;;;-1.53;97.78;101215.03;6169639;23;19984;-76
2021/01/09 10:17:58;;;;;;;;;;;;;;;-1.26;97.89;101224.22;6041560;23;20336;-76
2021/01/09 10:32:17;;;;;;;;;;;;;;;;;;;;;
2021/01/09 11:17:09;;;;;;;;;;;;;;;0.46;97.45;101176.72;5873977;24;19916;-73
2021/01/09 11:24:06;;;;;;;;;;;;;;;0.61;97.24;101169.16;5846149;24;19908;-74
2021/01/09 11:34:19;;;;;;;;;;;;;;;0.87;96.11;101160.06;5852838;24;19932;-75
2021/01/09 11:37:23;;;;;;;;;;;;;;;0.89;95.68;101160.69;5878714;24;19908;-74
2021/01/09 11:58:16;;;;;;;;;;;;;;;;;;;;;
2021/01/09 12:04:26;;;;;;;;;;;;;;;1.21;93.26;101138.06;5820614;24;19916;-74
2021/01/09 12:11:17;;;;;;;;;;;;;;;1.25;93.49;101133.81;5846546;24;19907;-73
2021/01/09 12:14:16;;;;;;;;;;;;;;;1.27;93.63;101132.53;5923489;24;19942;-74
2021/01/09 12:21:16;;;;;;;;;;;;;;;1.39;93.68;101124.47;6073141;23;19905;-74
2021/01/09 12:28:16;;;;;;;;;;;;;;;1.47;92.37;101112.44;6144505;23;19915;-73
2021/01/09 12:35:08;;;;;;;;;;;;;;;;;;;;;
2021/01/09 12:55:34;;;;;;;;;;;;;;;1.66;91.36;101080.53;6034516;23;19959;-73
2021/01/09 13:05:25;;;;;;;;;;;;;;;1.68;91.23;101084.72;5886906;24;20242;-74
2021/01/09 13:07:56;;;;;;;;;;;;;;;1.71;91.33;101083.44;5872037;24;20429;-74
2021/01/09 13:17:59;;;;;;;;;;;;;;;1.69;90.56;101080.09;5871200;24;19912;-75
2021/01/09 13:42:01;;;;;;;;;;;;;;;1.78;89.26;101089.69;5859334;24;19923;-75
2021/01/09 13:45:01;;;;;;;;;;;;;;;1.77;88.60;101091.59;5894660;24;19923;-74
2021/01/09 13:48:09;;;;;;;;;;;;;;;1.79;88.39;101085.91;5899872;24;19923;-74
2021/01/09 13:55:22;;;;;;;;;;;;;;;1.81;88.38;101092.00;5905750;23;19907;-74
2021/01/09 13:58:49;;;;;;;;;;;;;;;;;;;;;
2021/01/09 14:06:16;;;;;;;;;;;;;;;;;;;;;
2021/01/09 14:20:20;;;;;;;;;;;;;;;1.75;88.06;101114.78;5773524;24;19939;-74
2021/01/09 14:26:50;;;;;;;;;;;;;;;1.74;87.01;101115.88;5819631;24;19967;-74
2021/01/09 14:29:47;;;;;;;;;;;;;;;1.70;87.15;101120.09;5804393;24;20276;-74
2021/01/09 14:32:51;;;;;;;;;;;;;;;1.70;86.78;101120.09;5807999;24;21306;-74
2021/01/09 14:35:34;;;;;;;;;;;;;;;1.69;85.54;101122.00;5837341;24;20239;-73
2021/01/09 14:38:08;;;;;;;;;;;;;;;1.63;85.75;101135.75;5826725;24;19943;-77
2021/01/09 14:40:39;;;;;;;;;;;;;;;1.62;84.72;101134.06;5876218;24;19908;-73
2021/01/09 14:43:07;;;;;;;;;;;;;;;1.55;84.59;101134.94;5875943;24;19996;-74
2021/01/09 14:45:35;;;;;;;;;;;;;;;1.52;83.15;101129.88;5875189;24;19907;-73
2021/01/09 14:48:01;;;;;;;;;;;;;;;1.48;82.00;101136.88;5878551;24;20282;-74
2021/01/09 14:50:26;;;;;;;;;;;;;;;1.49;82.05;101141.28;5971826;24;19990;-73
2021/01/09 14:52:51;;;;;;;;;;;;;;;1.52;83.52;101140.84;5962362;24;19906;-73
2021/01/09 14:55:17;;;;;;;;;;;;;;;1.49;82.96;101152.22;5985660;24;20210;-73
2021/01/09 14:57:42;;;;;;;;;;;;;;;1.40;81.77;101142.59;5939737;24;19941;-73
2021/01/09 15:00:08;;;;;;;;;;;;;;;1.37;82.03;101147.69;5939313;24;19939;-73
2021/01/09 15:02:33;;;;;;;;;;;;;;;1.34;82.14;101149.78;6110471;22;19938;-73
2021/01/09 15:04:59;;;;;;;;;;;;;;;1.31;82.03;101154.88;6255262;22;19903;-73
2021/01/09 15:07:24;;;;;;;;;;;;;;;1.28;82.00;101155.28;6254530;22;19929;-73
2021/01/09 15:09:50;;;;;;;;;;;;;;;1.25;82.02;101152.97;6229224;22;19903;-73
2021/01/09 15:12:16;;;;;;;;;;;;;;;1.20;83.17;101152.78;6255716;22;19903;-73
2021/01/09 15:14:43;;;;;;;;;;;;;;;1.14;83.55;101148.16;6254777;22;19938;-73
2021/01/09 15:17:10;;;;;;;;;;;;;;;1.14;83.11;101164.59;6254655;22;19993;-73
2021/01/09 15:19:38;;;;;;;;;;;;;;;1.08;83.64;101160.81;6230077;22;19903;-73
2021/01/09 15:22:03;;;;;;;;;;;;;;;1.03;83.87;101158.75;6229588;22;19907;-73
2021/01/09 15:24:30;;;;;;;;;;;;;;;1.03;83.48;101166.09;6282237;22;19922;-73
2021/01/09 15:26:56;;;;;;;;;;;;;;;0.93;84.25;101163.81;6230119;22;19907;-73
2021/01/09 15:29:21;;;;;;;;;;;;;;;0.92;84.18;101172.22;6229425;22;19903;-73
2021/01/09 15:31:46;;;;;;;;;;;;;;;0.88;84.20;101172.66;6253926;22;19907;-73
2021/01/09 15:34:12;;;;;;;;;;;;;;;0.89;84.60;101168.03;6230448;22;19986;-73
2021/01/09 15:36:39;;;;;;;;;;;;;;;0.81;84.74;101171.00;6227773;22;20313;-73
2021/01/09 15:39:05;;;;;;;;;;;;;;;0.73;84.85;101176.72;6254893;22;19941;-73
2021/01/09 15:41:30;;;;;;;;;;;;;;;0.69;84.69;101173.53;6255406;22;20305;-73
2021/01/09 15:43:55;;;;;;;;;;;;;;;0.66;84.99;101173.97;6281189;22;19953;-73
2021/01/09 15:46:21;;;;;;;;;;;;;;;0.64;85.11;101171.47;6229282;22;19903;-73
2021/01/09 15:48:49;;;;;;;;;;;;;;;0.64;85.06;101179.66;6230248;22;19907;-73
2021/01/09 15:51:14;;;;;;;;;;;;;;;0.56;85.34;101173.56;6254226;22;19910;-73
2021/01/09 15:53:40;;;;;;;;;;;;;;;0.54;85.19;101178.41;6229317;22;19956;-73
2021/01/09 15:56:06;;;;;;;;;;;;;;;0.42;85.62;101176.31;6254729;22;19903;-73
2021/01/09 15:58:36;;;;;;;;;;;;;;;0.38;85.82;101176.94;6254283;22;19907;-73
2021/01/09 16:01:01;;;;;;;;;;;;;;;0.31;86.25;101184.31;6254186;22;19904;-73
2021/01/09 16:03:27;;;;;;;;;;;;;;;0.27;86.48;101186.59;6254731;22;19949;-73
2021/01/09 16:05:53;;;;;;;;;;;;;;;0.21;86.51;101193.75;6228539;22;19956;-73
2021/01/09 16:08:18;;;;;;;;;;;;;;;0.15;86.71;101193.75;6229142;22;20304;-73
2021/01/09 16:10:44;;;;;;;;;;;;;;;0.07;87.17;101192.03;6281904;22;19914;-73
2021/01/09 16:13:09;;;;;;;;;;;;;;;0.06;87.44;101192.28;6253308;22;19903;-73
2021/01/09 16:15:34;;;;;;;;;;;;;;;0.05;87.36;101199.59;6281275;22;19914;-74
2021/01/09 16:18:00;;;;;;;;;;;;;;;0.05;87.57;101199.59;6203789;22;19907;-73
2021/01/09 16:20:25;;;;;;;;;;;;;;;-0.07;87.51;101207.56;6228383;22;19903;-73
2021/01/09 16:22:51;;;;;;;;;;;;;;;-0.11;87.88;101199.97;6229161;22;19965;-73
2021/01/09 16:25:16;;;;;;;;;;;;;;;-0.11;87.95;101205.44;6229666;22;19903;-73
2021/01/09 16:27:41;;;;;;;;;;;;;;;-0.18;88.28;101207.34;6228770;22;19911;-73
2021/01/09 16:30:07;;;;;;;;;;;;;;;-0.21;88.45;101205.84;6229033;22;19914;-73
2021/01/09 16:32:34;;;;;;;;;;;;;;;-0.26;88.82;101208.34;6254534;22;20332;-73
2021/01/09 16:35:00;;;;;;;;;;;;;;;-0.28;88.43;101215.91;6203794;22;20414;-73
2021/01/09 16:37:27;;;;;;;;;;;;;;;-0.35;88.98;101217.78;6202333;22;19903;-73
2021/01/09 16:39:52;;;;;;;;;;;;;;;-0.41;88.70;101226.81;6254382;22;19903;-73
2021/01/09 16:42:18;;;;;;;;;;;;;;;-0.48;89.34;101224.84;6253856;22;20474;-73
2021/01/09 16:44:43;;;;;;;;;;;;;;;-0.54;89.31;101224.84;6228709;22;19930;-73
2021/01/09 16:47:09;;;;;;;;;;;;;;;-0.58;89.37;101224.41;6228851;22;19931;-73
2021/01/09 16:49:34;;;;;;;;;;;;;;;-0.66;89.98;101227.31;6253803;22;19903;-73
2021/01/09 16:51:59;;;;;;;;;;;;;;;-0.69;89.63;101230.44;6280592;22;19907;-73
2021/01/09 16:54:25;;;;;;;;;;;;;;;-0.76;89.70;101227.66;6281530;22;19903;-72
2021/01/09 16:56:50;;;;;;;;;;;;;;;-0.84;89.94;101227.84;6228676;22;19934;-73
2021/01/09 16:59:16;;;;;;;;;;;;;;;-0.89;90.21;101238.53;6253844;22;19903;-73
2021/01/09 17:01:41;;;;;;;;;;;;;;;-0.96;90.18;101246.66;6253701;22;19906;-72
2021/01/09 17:04:07;;;;;;;;;;;;;;;-1.00;90.29;101253.56;6228953;22;19903;-73
2021/01/09 17:06:43;;;;;;;;;;;;;;;-1.05;90.30;101252.47;6227660;22;19911;-73
2021/01/09 17:09:09;;;;;;;;;;;;;;;-1.11;90.37;101245.94;6229354;22;19922;-73
2021/01/09 17:11:38;;;;;;;;;;;;;;;-1.14;90.33;101254.53;6254055;22;20296;-73
2021/01/09 17:14:03;;;;;;;;;;;;;;;-1.21;90.75;101253.63;6280569;22;19983;-73
2021/01/09 17:16:29;;;;;;;;;;;;;;;-1.23;90.75;101256.53;6253931;22;19903;-73
2021/01/09 17:18:54;;;;;;;;;;;;;;;-1.25;90.96;101258.63;6253818;22;19935;-72
2021/01/09 17:21:19;;;;;;;;;;;;;;;-1.29;90.78;101264.66;6227902;22;19986;-73
2021/01/09 17:23:45;;;;;;;;;;;;;;;-1.34;91.16;101259.78;6281207;22;19903;-73
2021/01/09 17:26:10;;;;;;;;;;;;;;;-1.40;91.08;101269.59;6227818;22;19903;-73
2021/01/09 17:28:35;;;;;;;;;;;;;;;-1.44;91.18;101270.22;6203064;22;19953;-73
2021/01/09 17:31:01;;;;;;;;;;;;;;;-1.44;91.27;101273.78;6253578;22;19934;-73
2021/01/09 17:33:29;;;;;;;;;;;;;;;-1.49;91.22;101280.84;6203443;22;19948;-73
2021/01/09 17:35:55;;;;;;;;;;;;;;;-1.51;91.56;101282.91;6278720;22;19910;-73
2021/01/09 17:38:20;;;;;;;;;;;;;;;-1.56;91.49;101283.53;6228840;22;19985;-72
2021/01/09 17:40:46;;;;;;;;;;;;;;;-1.61;91.44;101280.53;6253862;22;19931;-73
2021/01/09 17:43:11;;;;;;;;;;;;;;;-1.61;91.44;101285.97;6227900;22;19919;-73
2021/01/09 17:45:36;;;;;;;;;;;;;;;-1.64;91.52;101294.53;6228507;22;19925;-72
2021/01/09 17:48:02;;;;;;;;;;;;;;;-1.72;91.49;101289.22;6253444;22;20037;-72
2021/01/09 17:50:28;;;;;;;;;;;;;;;-1.72;91.54;101290.06;6227804;22;20319;-72
2021/01/09 17:52:53;;;;;;;;;;;;;;;-1.77;91.70;101295.25;6203479;22;20252;-73
2021/01/09 17:55:18;;;;;;;;;;;;;;;-1.75;91.78;101295.06;6228904;22;19964;-73
2021/01/09 17:57:44;;;;;;;;;;;;;;;-1.81;91.89;101297.53;6203169;22;19914;-73
2021/01/09 18:00:10;;;;;;;;;;;;;;;-1.82;91.91;101297.69;6253813;22;19914;-73
2021/01/09 18:02:35;;;;;;;;;;;;;;;-1.87;91.96;101308.31;6253790;22;19903;-73
2021/01/09 18:05:06;;;;;;;;;;;;;;;-1.86;91.88;101305.41;6252886;22;20346;-73
2021/01/09 18:07:37;;;;;;;;;;;;;;;-1.85;91.81;101307.09;6203176;22;19907;-73
2021/01/09 18:10:03;;;;;;;;;;;;;;;-1.91;92.01;101310.59;6254290;22;19982;-73
2021/01/09 18:12:28;;;;;;;;;;;;;;;-1.92;91.73;101308.06;6253967;22;19907;-73
2021/01/09 18:14:56;;;;;;;;;;;;;;;-1.94;91.85;101304.69;6228067;22;19903;-74
2021/01/09 18:17:21;;;;;;;;;;;;;;;-1.94;91.98;101318.31;6254054;22;20033;-73
2021/01/09 18:19:49;;;;;;;;;;;;;;;-1.94;91.74;101318.31;6280898;22;19907;-72
2021/01/09 18:22:17;;;;;;;;;;;;;;;-2.03;92.08;101321.16;6253745;22;19910;-72
2021/01/09 18:24:42;;;;;;;;;;;;;;;-2.02;92.31;101320.09;6280627;22;19903;-73
2021/01/09 18:27:08;;;;;;;;;;;;;;;-2.02;92.19;101321.97;6253824;22;20328;-72
2021/01/09 18:29:33;;;;;;;;;;;;;;;-1.99;92.25;101318.03;6253323;22;19907;-72
2021/01/09 18:31:58;;;;;;;;;;;;;;;-1.96;92.05;101339.44;6280077;22;19903;-72
2021/01/09 18:34:24;;;;;;;;;;;;;;;-2.04;92.24;101333.06;6254493;22;19907;-72
2021/01/09 18:36:49;;;;;;;;;;;;;;;-2.02;92.32;101328.28;6202034;22;19903;-72
2021/01/09 18:39:14;;;;;;;;;;;;;;;-2.00;92.39;101336.25;6230101;22;20021;-72
2021/01/09 18:41:40;;;;;;;;;;;;;;;-2.06;92.48;101337.03;6230409;22;19903;-72
2021/01/09 18:44:05;;;;;;;;;;;;;;;-2.05;92.49;101334.09;6255457;22;19911;-72
2021/01/09 18:46:31;;;;;;;;;;;;;;;-2.07;92.48;101340.75;6255362;22;19910;-72
2021/01/09 18:48:56;;;;;;;;;;;;;;;-2.03;92.54;101342.94;6255522;22;19914;-72
2021/01/09 18:51:22;;;;;;;;;;;;;;;-2.04;92.51;101343.94;6230058;22;19903;-74
2021/01/09 18:53:47;;;;;;;;;;;;;;;-2.05;92.55;101349.59;6282005;22;19903;-74
2021/01/09 18:56:16;;;;;;;;;;;;;;;-2.07;92.57;101346.22;6205074;22;19904;-74
2021/01/09 18:58:42;;;;;;;;;;;;;;;-2.09;92.57;101345.53;6255677;22;19903;-74
2021/01/09 19:01:07;;;;;;;;;;;;;;;-2.10;92.54;101344.72;6281534;22;20293;-74
2021/01/09 19:03:32;;;;;;;;;;;;;;;-2.13;92.54;101349.69;6229904;22;19903;-74
2021/01/09 19:05:58;;;;;;;;;;;;;;;-2.10;92.60;101352.03;6282235;22;19986;-74
2021/01/09 19:08:23;;;;;;;;;;;;;;;-2.09;92.44;101353.72;6255069;22;19965;-74
2021/01/09 19:10:48;;;;;;;;;;;;;;;-2.09;92.37;101353.72;6254822;22;19952;-75
2021/01/09 19:13:14;;;;;;;;;;;;;;;-2.10;92.42;101354.75;6281871;22;19907;-74
2021/01/09 19:15:39;;;;;;;;;;;;;;;-2.12;92.35;101360.38;6282219;22;19903;-74
2021/01/09 19:18:05;;;;;;;;;;;;;;;-2.13;92.48;101358.69;6281586;22;19932;-74
2021/01/09 19:20:30;;;;;;;;;;;;;;;-2.13;92.35;101358.69;6254885;22;19903;-74
2021/01/09 19:22:56;;;;;;;;;;;;;;;-2.24;92.38;101356.47;6282304;22;19907;-74
2021/01/09 19:25:21;;;;;;;;;;;;;;;-2.21;92.60;101356.09;6281720;22;20236;-74
2021/01/09 19:27:46;;;;;;;;;;;;;;;-2.20;92.55;101367.81;6281769;22;19930;-74
2021/01/09 19:30:12;;;;;;;;;;;;;;;-2.15;92.35;101366.19;6230001;22;19941;-74
2021/01/09 19:32:37;;;;;;;;;;;;;;;-2.20;92.55;101363.22;6281297;22;19903;-74
2021/01/09 19:35:03;;;;;;;;;;;;;;;-2.22;92.40;101370.72;6254729;22;19949;-74
2021/01/09 19:37:29;;;;;;;;;;;;;;;-2.25;92.45;101366.50;6281004;22;19904;-74
2021/01/09 19:39:54;;;;;;;;;;;;;;;-2.23;92.65;101368.19;6229362;22;19903;-74
2021/01/09 19:42:22;;;;;;;;;;;;;;;-2.26;92.85;101374.84;6254487;22;20374;-74
2021/01/09 19:44:48;;;;;;;;;;;;;;;-2.31;92.97;101374.59;6229552;22;19907;-74
2021/01/09 19:47:13;;;;;;;;;;;;;;;-2.31;93.04;101371.88;6281546;22;19907;-74
2021/01/09 19:49:39;;;;;;;;;;;;;;;-2.28;93.19;101377.78;6204029;22;19911;-74
2021/01/09 19:52:06;;;;;;;;;;;;;;;-2.28;93.15;101366.88;6254271;22;19982;-74
2021/01/09 19:54:31;;;;;;;;;;;;;;;-2.24;93.18;101367.34;6254128;22;19925;-74
2021/01/09 19:56:56;;;;;;;;;;;;;;;-2.29;93.29;101377.94;6254147;22;20343;-75
2021/01/09 19:59:22;;;;;;;;;;;;;;;-2.27;93.19;101373.16;6254655;22;19951;-75
2021/01/09 20:01:47;;;;;;;;;;;;;;;-2.25;93.24;101373.84;6228902;22;19903;-77
2021/01/09 20:04:13;;;;;;;;;;;;;;;-2.25;93.35;101371.09;6254337;22;19910;-75
2021/01/09 20:06:38;;;;;;;;;;;;;;;-2.25;93.42;101371.94;6228783;22;19910;-75
2021/01/09 20:09:04;;;;;;;;;;;;;;;-2.24;93.40;101372.78;6229296;22;19911;-75
2021/01/09 20:11:29;;;;;;;;;;;;;;;-2.21;93.43;101364.25;6228674;22;20316;-75
2021/01/09 20:13:54;;;;;;;;;;;;;;;-2.26;93.52;101363.97;6281675;22;19903;-75
2021/01/09 20:16:23;;;;;;;;;;;;;;;-2.25;93.57;101365.66;6281619;22;19903;-75
2021/01/09 20:18:49;;;;;;;;;;;;;;;-2.23;93.58;101374.47;6281051;22;19945;-75
2021/01/09 20:21:21;;;;;;;;;;;;;;;-2.24;93.47;101359.19;6254287;22;19942;-75
2021/01/09 20:23:46;;;;;;;;;;;;;;;-2.27;93.48;101371.28;6254637;22;19904;-74
2021/01/09 20:26:11;;;;;;;;;;;;;;;-2.26;93.53;101375.72;6281434;22;19910;-75
2021/01/09 20:28:37;;;;;;;;;;;;;;;-2.24;93.31;101372.78;6280951;22;19907;-74
2021/01/09 20:31:02;;;;;;;;;;;;;;;-2.25;93.54;101388.28;6254120;22;19903;-75
2021/01/09 20:33:27;;;;;;;;;;;;;;;-2.30;93.59;101385.28;6254010;22;19903;-74
2021/01/09 20:35:53;;;;;;;;;;;;;;;-2.27;93.71;101384.06;6280025;22;19935;-75
2021/01/09 20:38:18;;;;;;;;;;;;;;;-2.28;93.69;101387.81;6229431;22;19926;-75
2021/01/09 20:40:45;;;;;;;;;;;;;;;-2.30;93.89;101388.00;6229161;22;19982;-75
2021/01/09 20:43:11;;;;;;;;;;;;;;;-2.29;93.77;101386.94;6228861;22;19915;-75
2021/01/09 20:45:36;;;;;;;;;;;;;;;-2.29;94.00;101388.84;6254443;22;19909;-75
2021/01/09 20:48:01;;;;;;;;;;;;;;;-2.31;93.85;101393.63;6227785;22;19907;-74